createdAt,value
2022-08-30T00:02:21.917Z,69.05
2022-08-30T00:04:54.225Z,70.26
2022-08-30T00:07:22.477Z,73.88
2022-08-30T00:09:49.591Z,72.94
2022-08-30T00:12:17.184Z,71.69
2022-08-30T00:14:44.174Z,70.23
2022-08-30T00:17:11.398Z,72.12
2022-08-30T00:19:38.762Z,73.01
2022-08-30T00:22:07.187Z,72.69
2022-08-30T00:24:34.378Z,74.36
2022-08-30T00:27:01.543Z,73.33
2022-08-30T00:29:28.675Z,70.18
2022-08-30T00:31:55.866Z,72.11
2022-08-30T00:34:23.031Z,70.99
2022-08-30T00:36:50.191Z,73.56
2022-08-30T00:39:17.166Z,75.91
2022-08-30T00:41:45.007Z,76.50
2022-08-30T00:44:12.212Z,75.96
2022-08-30T00:46:39.274Z,72.66
2022-08-30T00:49:10.757Z,69.75
2022-08-30T00:51:39.496Z,68.96
2022-08-30T00:54:08.093Z,69.32
2022-08-30T00:56:36.122Z,73.09
2022-08-30T00:59:05.379Z,73.48
2022-08-30T01:01:34.341Z,72.97
2022-08-30T01:04:02.501Z,73.44
2022-08-30T01:06:32.826Z,71.77
2022-08-30T01:09:02.996Z,74.33
2022-08-30T01:11:34.930Z,73.25
2022-08-30T01:14:03.649Z,71.42
2022-08-30T01:16:33.874Z,71.82
2022-08-30T01:19:02.696Z,72.25
2022-08-30T01:21:51.000Z,72.01
2022-08-30T01:24:19.180Z,70.72
2022-08-30T01:26:46.471Z,72.07
2022-08-30T01:29:21.336Z,70.96
2022-08-30T01:31:49.386Z,72.85
2022-08-30T01:34:16.841Z,76.21
2022-08-30T01:36:45.788Z,76.02
2022-08-30T01:39:17.972Z,73.42
2022-08-30T01:41:45.658Z,75.33
2022-08-30T01:44:15.119Z,76.62
2022-08-30T01:46:47.028Z,74.71
2022-08-30T01:49:23.087Z,75.27
2022-08-30T01:52:00.582Z,74.42
2022-08-30T01:54:36.845Z,72.75
2022-08-30T01:57:08.213Z,74.48
2022-08-30T01:59:35.693Z,76.21
2022-08-30T02:02:04.879Z,75.78
2022-08-30T02:04:32.015Z,76.24
2022-08-30T02:06:58.977Z,73.47
2022-08-30T02:09:26.021Z,72.50
2022-08-30T02:11:53.232Z,71.18
2022-08-30T02:14:21.205Z,69.72
2022-08-30T02:16:48.749Z,71.91
2022-08-30T02:19:16.296Z,75.91
2022-08-30T02:21:43.411Z,76.17
2022-08-30T02:24:10.493Z,75.85
2022-08-30T02:26:37.610Z,74.80
2022-08-30T02:29:06.787Z,75.49
2022-08-30T02:31:33.985Z,75.72
2022-08-30T02:34:01.796Z,76.79
2022-08-30T02:36:28.975Z,77.00
2022-08-30T02:38:56.008Z,78.53
2022-08-30T02:41:23.896Z,79.51
2022-08-30T02:43:52.291Z,78.04
2022-08-30T02:46:19.472Z,76.89
2022-08-30T02:48:46.593Z,77.24
2022-08-30T02:51:15.263Z,72.83
2022-08-30T02:53:44.363Z,72.31
2022-08-30T02:56:16.592Z,72.46
2022-08-30T02:58:45.017Z,74.27
2022-08-30T03:01:15.281Z,75.83
2022-08-30T03:03:45.603Z,76.49
2022-08-30T03:06:13.755Z,74.10
2022-08-30T03:08:41.228Z,75.30
2022-08-30T03:11:09.811Z,75.33
2022-08-30T03:13:37.058Z,76.22
2022-08-30T03:16:04.064Z,74.46
2022-08-30T03:18:31.329Z,75.18
2022-08-30T03:20:58.701Z,76.37
2022-08-30T03:23:26.125Z,76.95
2022-08-30T03:25:53.547Z,75.46
2022-08-30T03:28:21.095Z,75.64
2022-08-30T03:30:48.808Z,76.67
2022-08-30T03:33:16.108Z,74.22
2022-08-30T03:35:45.892Z,71.55
2022-08-30T03:38:12.896Z,70.97
2022-08-30T03:40:40.126Z,73.60
2022-08-30T03:43:07.583Z,74.67
2022-08-30T03:45:35.784Z,76.92
2022-08-30T03:48:03.429Z,76.64
2022-08-30T03:50:31.340Z,76.02
2022-08-30T03:53:01.904Z,72.64
2022-08-30T03:55:30.678Z,71.05
2022-08-30T03:57:58.156Z,72.83
2022-08-30T04:00:25.484Z,73.68
2022-08-30T04:02:52.401Z,76.52
2022-08-30T04:05:21.023Z,79.20
2022-08-30T04:07:48.191Z,77.78
2022-08-30T04:10:15.389Z,77.98
2022-08-30T04:12:45.143Z,77.74
2022-08-30T04:15:18.128Z,79.90
2022-08-30T04:17:45.628Z,79.17
2022-08-30T04:20:13.000Z,78.81
2022-08-30T04:22:39.985Z,77.69
2022-08-30T04:25:08.161Z,74.92
2022-08-30T04:27:43.125Z,76.72
2022-08-30T04:30:12.238Z,79.25
2022-08-30T04:32:39.187Z,76.56
2022-08-30T04:35:06.925Z,75.81
2022-08-30T04:37:34.041Z,74.52
2022-08-30T04:40:01.111Z,74.95
2022-08-30T04:42:34.208Z,74.51
2022-08-30T04:45:09.388Z,77.20
2022-08-30T04:47:36.713Z,77.16
2022-08-30T04:50:04.913Z,76.90
2022-08-30T04:52:32.184Z,76.49
2022-08-30T04:55:00.050Z,76.59
2022-08-30T04:57:28.410Z,73.92
2022-08-30T04:59:55.825Z,73.70
2022-08-30T05:02:23.708Z,72.40
2022-08-30T05:05:09.851Z,73.70
2022-08-30T05:07:37.374Z,76.21
2022-08-30T05:10:10.458Z,76.69
2022-08-30T05:12:39.412Z,76.26
2022-08-30T05:15:07.793Z,75.73
2022-08-30T05:17:36.636Z,76.54
2022-08-30T05:20:06.015Z,74.34
2022-08-30T05:22:35.368Z,71.90
2022-08-30T05:25:02.490Z,71.84
2022-08-30T05:27:29.697Z,72.55
2022-08-30T05:29:56.808Z,71.62
2022-08-30T05:32:25.017Z,71.22
2022-08-30T05:34:52.103Z,71.41
2022-08-30T05:37:18.997Z,71.57
2022-08-30T05:39:51.218Z,73.56
2022-08-30T05:42:19.464Z,72.66
2022-08-30T05:44:47.880Z,68.48
2022-08-30T05:47:14.827Z,68.31
2022-08-30T05:49:41.895Z,69.03
2022-08-30T05:52:08.859Z,62.33
2022-08-30T05:54:36.117Z,62.04
2022-08-30T05:57:03.395Z,69.96
2022-08-30T05:59:31.737Z,73.00
2022-08-30T06:01:59.131Z,72.68
2022-08-30T06:04:26.657Z,70.14
2022-08-30T06:06:54.086Z,69.19
2022-08-30T06:09:21.249Z,71.54
2022-08-30T06:11:48.621Z,72.17
2022-08-30T06:14:15.634Z,71.42
2022-08-30T06:16:46.088Z,70.85
2022-08-30T06:19:15.042Z,70.69
2022-08-30T06:21:43.842Z,65.48
2022-08-30T06:24:12.027Z,66.22
2022-08-30T06:26:43.359Z,64.67
2022-08-30T06:29:14.324Z,63.53
2022-08-30T06:31:42.838Z,63.55
2022-08-30T06:34:10.017Z,63.96
2022-08-30T06:36:38.770Z,64.93
2022-08-30T06:39:07.118Z,65.61
2022-08-30T06:41:36.873Z,65.02
2022-08-30T06:44:10.175Z,64.67
2022-08-30T06:46:39.530Z,64.84
2022-08-30T06:49:07.753Z,64.24
2022-08-30T06:51:39.325Z,66.16
2022-08-30T06:54:10.701Z,66.79
2022-08-30T06:56:48.684Z,66.08
2022-08-30T06:59:27.177Z,65.44
2022-08-30T07:01:55.546Z,65.13
2022-08-30T07:04:22.729Z,64.64
2022-08-30T07:06:49.697Z,66.05
2022-08-30T07:09:17.409Z,63.57
2022-08-30T07:11:44.718Z,64.38
2022-08-30T07:14:12.291Z,63.75
2022-08-30T07:16:39.433Z,60.97
2022-08-30T07:19:07.153Z,61.50
2022-08-30T07:21:38.712Z,61.27
2022-08-30T07:24:08.863Z,58.25
2022-08-30T07:26:44.064Z,60.75
2022-08-30T07:29:11.041Z,60.06
2022-08-30T07:31:38.073Z,59.33
2022-08-30T07:34:09.880Z,57.31
2022-08-30T07:36:38.886Z,58.07
2022-08-30T07:39:07.659Z,57.26
2022-08-30T07:41:39.053Z,57.61
2022-08-30T07:44:08.670Z,59.06
2022-08-30T07:46:37.511Z,57.95
2022-08-30T07:49:05.950Z,57.01
2022-08-30T07:51:40.118Z,56.85
2022-08-30T07:54:07.426Z,57.20
2022-08-30T07:56:35.383Z,59.99
2022-08-30T07:59:03.035Z,58.75
2022-08-30T08:01:30.599Z,56.64
2022-08-30T08:03:58.942Z,57.91
2022-08-30T08:06:27.585Z,56.03
2022-08-30T08:09:02.826Z,54.87
2022-08-30T08:11:33.606Z,54.89
2022-08-30T08:14:03.188Z,55.14
2022-08-30T08:16:33.683Z,55.94
2022-08-30T08:19:01.828Z,55.94
2022-08-30T08:21:29.192Z,55.36
2022-08-30T08:23:56.146Z,56.00
2022-08-30T08:26:25.561Z,54.21
2022-08-30T08:28:52.893Z,53.21
2022-08-30T08:31:31.393Z,53.98
2022-08-30T08:34:06.176Z,53.19
2022-08-30T08:36:35.513Z,52.46
2022-08-30T08:39:04.953Z,52.18
2022-08-30T08:41:38.163Z,53.21
2022-08-30T08:45:10.174Z,52.98
2022-08-30T08:47:57.709Z,53.66
2022-08-30T08:50:29.230Z,52.77
2022-08-30T08:53:50.720Z,52.89
2022-08-30T08:56:19.416Z,53.59
2022-08-30T08:58:53.291Z,52.88
2022-08-30T09:01:28.415Z,52.61
2022-08-30T09:03:58.508Z,52.67
2022-08-30T09:06:50.344Z,52.56
2022-08-30T09:09:46.301Z,53.69
2022-08-30T09:12:13.710Z,53.11
2022-08-30T09:14:54.407Z,52.06
2022-08-30T09:17:23.366Z,52.76
2022-08-30T09:19:53.570Z,51.41
2022-08-30T09:22:46.737Z,51.25
2022-08-30T09:25:14.052Z,50.78
2022-08-30T09:27:48.112Z,51.16
2022-08-30T09:30:27.106Z,50.25
2022-08-30T09:33:01.550Z,50.28
2022-08-30T09:35:46.674Z,50.05
2022-08-30T09:38:34.160Z,50.23
2022-08-30T09:41:28.520Z,50.09
2022-08-30T09:44:17.657Z,50.54
2022-08-30T09:47:00.641Z,51.93
2022-08-30T09:49:34.492Z,51.12
2022-08-30T09:52:39.215Z,50.67
2022-08-30T09:55:42.592Z,51.25
2022-08-30T09:58:45.382Z,51.50
2022-08-30T10:01:22.821Z,51.09
2022-08-30T10:04:02.050Z,50.76
2022-08-30T10:07:09.122Z,51.45
2022-08-30T10:09:52.126Z,50.43
2022-08-30T10:13:03.323Z,49.34
2022-08-30T10:15:50.129Z,49.97
2022-08-30T10:18:25.325Z,49.39
2022-08-30T10:21:17.047Z,48.62
2022-08-30T10:23:54.207Z,50.25
2022-08-30T10:26:39.935Z,49.19
2022-08-30T10:29:23.748Z,47.43
2022-08-30T10:32:17.731Z,49.80
2022-08-30T10:35:00.679Z,47.73
2022-08-30T10:37:32.040Z,47.46
2022-08-30T10:40:42.389Z,49.88
2022-08-30T10:43:46.431Z,47.33
2022-08-30T10:46:58.026Z,47.78
2022-08-30T10:49:32.048Z,47.50
2022-08-30T10:52:33.469Z,47.84
2022-08-30T10:55:06.201Z,48.15
2022-08-30T10:57:33.125Z,47.78
2022-08-30T11:00:18.710Z,48.78
2022-08-30T11:03:42.460Z,47.85
2022-08-30T11:06:40.797Z,47.93
2022-08-30T11:09:41.364Z,47.41
2022-08-30T11:12:27.287Z,47.87
2022-08-30T11:14:55.356Z,46.51
2022-08-30T11:17:45.572Z,46.86
2022-08-30T11:20:46.925Z,46.56
2022-08-30T11:23:36.473Z,46.24
2022-08-30T11:26:07.529Z,47.10
2022-08-30T11:28:38.627Z,45.86
2022-08-30T11:31:28.834Z,46.09
2022-08-30T11:34:00.863Z,46.10
2022-08-30T11:36:38.717Z,45.72
2022-08-30T11:39:49.007Z,46.17
2022-08-30T11:42:29.313Z,46.00
2022-08-30T11:45:26.738Z,45.13
2022-08-30T11:48:04.478Z,44.53
2022-08-30T11:51:05.854Z,47.78
2022-08-30T11:54:22.172Z,45.05
2022-08-30T11:57:31.131Z,46.73
2022-08-30T12:00:25.804Z,46.27
2022-08-30T12:03:03.942Z,46.10
2022-08-30T12:05:45.888Z,45.72
2022-08-30T12:08:24.310Z,43.78
2022-08-30T12:11:01.503Z,44.71
2022-08-30T12:13:34.619Z,43.97
2022-08-30T12:16:14.929Z,44.59
2022-08-30T12:19:13.395Z,45.14
2022-08-30T12:21:45.138Z,42.44
2022-08-30T12:24:26.785Z,43.36
2022-08-30T12:26:54.595Z,42.33
2022-08-30T12:29:28.024Z,44.13
2022-08-30T12:32:03.399Z,44.05
2022-08-30T12:34:34.152Z,45.49
2022-08-30T12:37:05.676Z,44.56
2022-08-30T12:39:35.935Z,42.98
2022-08-30T12:42:29.387Z,43.01
2022-08-30T12:45:01.960Z,42.49
2022-08-30T12:47:45.447Z,43.51
2022-08-30T12:50:19.412Z,43.10
2022-08-30T12:52:57.447Z,42.47
2022-08-30T12:55:30.716Z,42.26
2022-08-30T12:58:10.660Z,41.22
2022-08-30T13:00:43.837Z,40.73
2022-08-30T13:03:37.081Z,42.54
2022-08-30T13:06:10.209Z,42.72
2022-08-30T13:08:51.794Z,42.60
2022-08-30T13:11:21.977Z,42.87
2022-08-30T13:14:16.638Z,41.94
2022-08-30T13:16:45.463Z,43.69
2022-08-30T13:19:41.836Z,43.28
2022-08-30T13:22:40.057Z,43.17
2022-08-30T13:25:10.042Z,42.12
2022-08-30T13:27:39.316Z,42.29
2022-08-30T13:30:16.274Z,43.25
2022-08-30T13:32:44.672Z,41.75
2022-08-30T13:35:12.341Z,42.86
2022-08-30T13:37:49.465Z,41.19
2022-08-30T13:40:20.199Z,42.03
2022-08-30T13:42:48.138Z,41.95
2022-08-30T13:48:06.677Z,42.01
2022-08-30T13:50:33.899Z,40.52
2022-08-30T13:53:01.086Z,41.03
2022-08-30T13:55:28.598Z,42.63
2022-08-30T13:57:57.542Z,41.60
2022-08-30T14:00:26.569Z,41.66
2022-08-30T14:02:57.562Z,42.28
2022-08-30T14:05:49.300Z,42.78
2022-08-30T14:08:48.705Z,42.64
2022-08-30T14:11:21.210Z,41.65
2022-08-30T14:16:43.033Z,42.08
2022-08-30T14:19:12.527Z,41.78
2022-08-30T14:21:39.813Z,41.20
2022-08-30T14:24:07.681Z,41.82
2022-08-30T14:26:47.623Z,42.28
2022-08-30T14:29:19.200Z,41.71
2022-08-30T14:31:48.657Z,42.60
2022-08-30T14:34:19.029Z,42.40
2022-08-30T14:36:47.240Z,42.69
2022-08-30T14:39:18.938Z,42.34
2022-08-30T14:41:53.104Z,42.36
2022-08-30T14:44:22.593Z,42.17
2022-08-30T14:46:51.136Z,42.79
2022-08-30T14:49:19.473Z,41.65
2022-08-30T14:51:48.756Z,41.06
2022-08-30T14:54:19.982Z,42.23
2022-08-30T14:56:47.629Z,43.01
2022-08-30T14:59:15.561Z,41.66
2022-08-30T15:01:44.608Z,42.20
2022-08-30T15:04:14.732Z,42.78
2022-08-30T15:06:45.322Z,42.03
2022-08-30T15:09:18.730Z,41.13
2022-08-30T15:11:58.690Z,42.72
2022-08-30T15:14:26.509Z,42.08
2022-08-30T15:16:56.235Z,41.20
2022-08-30T15:19:23.893Z,41.93
2022-08-30T15:21:52.225Z,42.24
2022-08-30T15:24:24.845Z,42.63
2022-08-30T15:26:58.096Z,42.46
2022-08-30T15:29:27.124Z,42.01
2022-08-30T15:31:54.549Z,43.15
2022-08-30T15:34:27.977Z,43.23
2022-08-30T15:36:55.796Z,42.82
2022-08-30T15:39:23.061Z,43.66
2022-08-30T15:41:55.983Z,43.74
2022-08-30T15:44:24.280Z,43.45
2022-08-30T15:46:51.236Z,43.32
2022-08-30T15:49:21.248Z,43.47
2022-08-30T15:51:51.585Z,43.87
2022-08-30T15:54:23.869Z,43.74
2022-08-30T15:56:59.211Z,43.52
2022-08-30T15:59:29.780Z,43.60
2022-08-30T16:01:57.896Z,43.19
2022-08-30T16:04:25.721Z,43.63
2022-08-30T16:06:53.488Z,43.36
2022-08-30T16:09:21.750Z,43.91
2022-08-30T16:11:49.357Z,44.18
2022-08-30T16:14:16.386Z,44.33
2022-08-30T16:16:43.882Z,44.42
2022-08-30T16:19:10.863Z,44.19
2022-08-30T16:21:39.932Z,45.53
2022-08-30T16:24:10.482Z,44.48
2022-08-30T16:26:38.284Z,44.81
2022-08-30T16:29:08.840Z,45.02
2022-08-30T16:31:37.028Z,45.28
2022-08-30T16:34:05.075Z,44.80
2022-08-30T16:36:33.617Z,45.44
2022-08-30T16:39:00.878Z,44.99
2022-08-30T16:41:28.765Z,45.75
2022-08-30T16:43:56.343Z,45.39
2022-08-30T16:46:27.279Z,45.41
2022-08-30T16:49:01.461Z,45.64
2022-08-30T16:51:31.828Z,45.93
2022-08-30T16:54:03.639Z,46.89
2022-08-30T16:56:33.037Z,47.21
2022-08-30T16:59:02.808Z,46.45
2022-08-30T17:01:37.520Z,46.54
2022-08-30T17:04:06.510Z,46.70
2022-08-30T17:06:35.637Z,46.00
2022-08-30T17:09:05.073Z,46.00
2022-08-30T17:11:34.283Z,47.23
2022-08-30T17:14:02.277Z,47.09
2022-08-30T17:16:30.180Z,47.25
2022-08-30T17:21:47.227Z,47.84
2022-08-30T17:24:14.429Z,47.53
2022-08-30T17:26:41.384Z,48.24
2022-08-30T17:29:08.413Z,49.53
2022-08-30T17:31:37.611Z,50.04
2022-08-30T17:34:05.844Z,49.71
2022-08-30T17:36:36.589Z,49.51
2022-08-30T17:39:11.243Z,50.34
2022-08-30T17:41:50.036Z,49.93
2022-08-30T17:44:23.278Z,49.05
2022-08-30T17:46:54.150Z,49.06
2022-08-30T17:49:22.428Z,48.80
2022-08-30T17:51:54.179Z,49.18
2022-08-30T17:54:25.725Z,49.05
2022-08-30T17:56:54.792Z,49.07
2022-08-30T17:59:25.343Z,49.01
2022-08-30T18:01:54.799Z,49.16
2022-08-30T18:04:24.985Z,48.53
2022-08-30T18:06:53.210Z,47.86
2022-08-30T18:09:20.866Z,47.41
2022-08-30T18:11:48.636Z,47.00
2022-08-30T18:14:16.544Z,46.72
2022-08-30T18:16:49.705Z,46.93
2022-08-30T18:19:21.294Z,47.13
2022-08-30T18:21:48.527Z,47.96
2022-08-30T18:24:16.907Z,46.98
2022-08-30T18:26:44.427Z,47.50
2022-08-30T18:29:11.530Z,47.34
2022-08-30T18:31:39.114Z,49.18
2022-08-30T18:34:12.132Z,47.84
2022-08-30T18:36:40.283Z,48.04
2022-08-30T18:39:08.805Z,48.80
2022-08-30T18:41:42.196Z,48.21
2022-08-30T18:44:26.646Z,48.38
2022-08-30T18:46:56.066Z,48.62
2022-08-30T18:49:25.729Z,48.72
2022-08-30T18:51:53.253Z,48.94
2022-08-30T18:54:20.433Z,49.78
2022-08-30T18:56:48.336Z,50.09
2022-08-30T18:59:16.187Z,50.29
2022-08-30T19:01:44.205Z,50.58
2022-08-30T19:04:22.417Z,51.06
2022-08-30T19:06:57.934Z,50.97
2022-08-30T19:09:25.010Z,51.59
2022-08-30T19:11:54.049Z,51.75
2022-08-30T19:14:21.023Z,52.05
2022-08-30T19:16:48.188Z,51.65
2022-08-30T19:19:15.529Z,51.49
2022-08-30T19:21:42.708Z,52.59
2022-08-30T19:24:10.022Z,53.96
2022-08-30T19:26:38.424Z,54.69
2022-08-30T19:29:07.202Z,54.87
2022-08-30T19:31:34.653Z,55.20
2022-08-30T19:34:02.807Z,55.08
2022-08-30T19:36:30.596Z,56.07
2022-08-30T19:38:57.762Z,57.15
2022-08-30T19:41:24.955Z,57.75
2022-08-30T19:43:52.079Z,58.49
2022-08-30T19:46:19.060Z,58.57
2022-08-30T19:48:46.119Z,58.08
2022-08-30T19:51:15.400Z,58.89
2022-08-30T19:53:42.985Z,58.63
2022-08-30T19:56:09.993Z,58.56
2022-08-30T19:58:36.957Z,58.67
2022-08-30T20:03:52.446Z,58.75
2022-08-30T20:06:20.322Z,58.15
2022-08-30T20:08:47.725Z,57.99
2022-08-30T20:11:17.842Z,57.83
2022-08-30T20:13:45.884Z,57.85
2022-08-30T20:16:14.298Z,57.81
2022-08-30T20:18:44.383Z,57.70
2022-08-30T20:21:14.369Z,57.45
2022-08-30T20:23:43.199Z,57.48
2022-08-30T20:24:23.645Z,47.77
2022-08-30T20:26:11.834Z,57.07
2022-08-30T20:28:40.517Z,57.10
2022-08-30T20:31:10.854Z,57.33
2022-08-30T20:33:38.539Z,57.43
2022-08-30T20:36:09.679Z,56.01
2022-08-30T20:38:37.145Z,56.10
2022-08-30T20:41:17.560Z,56.01
2022-08-30T20:43:45.455Z,56.12
2022-08-30T20:46:17.646Z,55.67
2022-08-30T20:48:46.153Z,56.46
2022-08-30T20:51:18.746Z,57.28
2022-08-30T20:53:46.720Z,57.76
2022-08-30T20:56:19.921Z,58.08
2022-08-30T20:58:47.084Z,57.97
2022-08-30T21:01:16.236Z,58.99
2022-08-30T21:03:47.544Z,58.90
2022-08-30T21:06:16.520Z,59.67
2022-08-30T21:08:43.814Z,60.22
2022-08-30T21:11:10.973Z,60.93
2022-08-30T21:13:38.322Z,62.44
2022-08-30T21:16:06.795Z,62.64
2022-08-30T21:18:36.622Z,63.09
2022-08-30T21:21:21.530Z,63.28
2022-08-30T21:23:49.740Z,63.57
2022-08-30T21:26:17.801Z,62.86
2022-08-30T21:28:50.063Z,62.10
2022-08-30T21:31:22.572Z,62.63
2022-08-30T21:33:51.893Z,62.84
2022-08-30T21:36:38.880Z,61.97
2022-08-30T21:39:06.797Z,61.08
2022-08-30T21:41:35.977Z,61.69
2022-08-30T21:44:11.668Z,62.19
2022-08-30T21:46:38.669Z,63.50
2022-08-30T21:49:09.726Z,63.51
2022-08-30T21:51:41.400Z,63.51
2022-08-30T21:54:11.141Z,62.87
2022-08-30T21:56:41.310Z,62.76
2022-08-30T21:59:10.417Z,62.54
2022-08-30T22:01:38.081Z,62.80
2022-08-30T22:04:08.447Z,63.84
2022-08-30T22:06:38.337Z,64.00
2022-08-30T22:09:13.796Z,63.31
2022-08-30T22:11:43.217Z,64.93
2022-08-30T22:14:12.601Z,63.53
2022-08-30T22:16:41.474Z,64.56
2022-08-30T22:19:09.179Z,64.54
2022-08-30T22:21:37.749Z,66.18
2022-08-30T22:24:05.654Z,66.25
2022-08-30T22:26:33.532Z,66.03
2022-08-30T22:29:01.392Z,67.21
2022-08-30T22:31:28.790Z,68.17
2022-08-30T22:33:56.093Z,69.28
2022-08-30T22:36:32.687Z,69.00
2022-08-30T22:39:01.834Z,67.83
2022-08-30T22:41:31.741Z,70.13
2022-08-30T22:43:58.929Z,69.72
2022-08-30T22:46:33.993Z,70.82
2022-08-30T22:49:06.872Z,70.80
2022-08-30T22:51:34.587Z,72.26
2022-08-30T22:54:03.829Z,74.23
2022-08-30T22:56:33.146Z,74.09
2022-08-30T22:59:00.361Z,74.26
2022-08-30T23:01:35.693Z,74.93
2022-08-30T23:04:05.764Z,75.30
2022-08-30T23:06:33.524Z,74.40
2022-08-30T23:09:00.951Z,74.80
2022-08-30T23:11:28.611Z,75.06
2022-08-30T23:13:57.834Z,74.09
2022-08-30T23:16:25.111Z,74.45
2022-08-30T23:18:52.233Z,73.53
2022-08-30T23:21:24.363Z,74.77
2022-08-30T23:24:13.454Z,72.95
2022-08-30T23:27:01.395Z,73.47
2022-08-30T23:29:49.221Z,75.09
2022-08-30T23:32:35.876Z,75.64
2022-08-30T23:35:29.523Z,74.82
2022-08-30T23:38:18.467Z,75.95
2022-08-30T23:41:04.362Z,75.17
2022-08-30T23:43:50.467Z,75.01
2022-08-30T23:46:35.701Z,74.74
2022-08-30T23:49:22.269Z,75.45
2022-08-30T23:52:08.108Z,76.84
2022-08-30T23:54:54.953Z,76.33
2022-08-30T23:57:44.637Z,76.63
